Time;durP1;ratioP1;P1;durP2;ratioP2;P2;SDS_P1;SDS_P2;PMS_P1;PMS_P2;Temp;Humidity;BMP_temperature;BMP_pressure;BME280_temperature;BME280_humidity;BME280_pressure;Samples;Min_cycle;Max_cycle;Signal;HPM_P1;HPM_P2
2022/07/01 00:00:42;;;;;;;0.50;0.40;;;16.50;99.90;;;;;;5113867;28;20345;-60
2022/07/01 00:03:08;;;;;;;1.77;0.47;;;16.50;99.90;;;;;;5113827;28;20031;-61
2022/07/01 00:05:33;;;;;;;0.80;0.40;;;16.50;99.90;;;;;;5112198;28;20258;-60
2022/07/01 00:07:59;;;;;;;0.87;0.60;;;16.50;99.90;;;;;;5114166;28;20261;-61
2022/07/01 00:10:24;;;;;;;3.05;0.60;;;16.50;99.90;;;;;;5114294;28;20057;-60
2022/07/01 00:12:50;;;;;;;0.80;0.33;;;16.50;99.90;;;;;;5114080;28;20038;-60
2022/07/01 00:15:16;;;;;;;3.03;0.43;;;16.50;99.90;;;;;;5114168;28;20345;-60
2022/07/01 00:17:43;;;;;;;0.70;0.33;;;16.50;99.90;;;;;;5112645;28;20264;-60
2022/07/01 00:20:09;;;;;;;0.75;0.40;;;16.60;99.90;;;;;;5113867;28;20269;-59
2022/07/01 00:22:35;;;;;;;3.30;0.55;;;16.50;99.90;;;;;;5111990;28;20434;-59
2022/07/01 00:25:00;;;;;;;0.95;0.40;;;16.60;99.90;;;;;;5113707;28;20023;-59
2022/07/01 00:27:26;;;;;;;3.35;0.40;;;16.70;99.90;;;;;;5113585;28;20027;-61
2022/07/01 00:29:52;;;;;;;0.53;0.43;;;16.70;99.90;;;;;;5112400;28;20035;-61
2022/07/01 00:32:17;;;;;;;0.82;0.60;;;16.70;99.90;;;;;;5117491;28;20637;-59
2022/07/01 00:34:43;;;;;;;0.70;0.33;;;16.60;99.90;;;;;;5118897;28;20038;-58
2022/07/01 00:37:08;;;;;;;0.93;0.33;;;16.70;99.90;;;;;;5118127;28;20263;-60
2022/07/01 00:39:35;;;;;;;0.60;0.40;;;16.60;99.90;;;;;;5117963;28;20679;-62
2022/07/01 00:42:01;;;;;;;1.33;0.55;;;16.80;99.90;;;;;;5118185;28;20012;-59
2022/07/01 00:44:27;;;;;;;3.20;0.50;;;16.80;99.90;;;;;;5117921;28;20019;-60
2022/07/01 00:46:54;;;;;;;2.20;0.82;;;16.70;99.90;;;;;;5117576;28;20024;-60
2022/07/01 00:49:20;;;;;;;1.73;0.70;;;16.80;99.90;;;;;;5117602;28;20386;-61
2022/07/01 00:51:45;;;;;;;1.35;0.68;;;16.70;99.90;;;;;;5117793;28;20055;-61
2022/07/01 00:54:12;;;;;;;2.05;0.60;;;16.80;99.90;;;;;;5117495;28;20396;-60
2022/07/01 00:56:37;;;;;;;1.55;0.47;;;16.80;99.90;;;;;;5118335;28;20035;-59
2022/07/01 00:59:03;;;;;;;2.05;0.70;;;16.80;99.90;;;;;;5118831;28;20096;-60
2022/07/01 01:01:29;;;;;;;1.08;0.55;;;16.80;99.90;;;;;;5117938;28;20543;-61
2022/07/01 01:03:55;;;;;;;1.23;0.60;;;16.80;99.90;;;;;;5117488;28;20060;-60
2022/07/01 01:06:21;;;;;;;0.43;0.38;;;16.70;99.90;;;;;;5116095;28;20404;-59
2022/07/01 01:08:48;;;;;;;1.02;0.40;;;16.70;99.90;;;;;;5116968;28;20480;-61
2022/07/01 01:11:15;;;;;;;0.40;0.40;;;16.70;99.90;;;;;;5118542;28;20031;-60
2022/07/01 01:13:41;;;;;;;1.27;0.50;;;16.80;99.90;;;;;;5117441;28;20020;-61
2022/07/01 01:16:07;;;;;;;3.13;0.60;;;16.70;99.90;;;;;;5117608;28;20426;-61
2022/07/01 01:18:33;;;;;;;1.30;0.50;;;16.70;99.90;;;;;;5117210;28;20112;-62
2022/07/01 01:20:59;;;;;;;3.95;0.60;;;16.70;99.90;;;;;;5115678;28;20024;-60
2022/07/01 01:23:24;;;;;;;1.53;0.50;;;16.70;99.90;;;;;;5117069;28;20024;-60
2022/07/01 01:25:50;;;;;;;1.48;0.40;;;16.60;99.90;;;;;;5117216;28;20022;-62
2022/07/01 01:28:16;;;;;;;0.73;0.40;;;16.60;99.90;;;;;;5117474;28;20078;-61
2022/07/01 01:30:41;;;;;;;1.08;0.50;;;16.70;99.90;;;;;;5117703;28;20051;-62
2022/07/01 01:33:08;;;;;;;2.35;0.60;;;16.80;99.90;;;;;;5116869;28;20063;-60
2022/07/01 01:35:34;;;;;;;1.45;0.50;;;16.70;99.90;;;;;;5116716;28;20027;-60
2022/07/01 01:38:00;;;;;;;1.70;0.40;;;16.80;99.90;;;;;;5117805;28;20031;-61
2022/07/01 01:40:26;;;;;;;2.00;0.45;;;16.80;99.90;;;;;;5117903;28;20433;-60
2022/07/01 01:42:52;;;;;;;0.40;0.35;;;16.80;99.90;;;;;;5115689;28;20028;-60
2022/07/01 01:45:18;;;;;;;1.00;0.50;;;16.80;99.90;;;;;;5116632;28;20027;-61
2022/07/01 01:47:43;;;;;;;0.60;0.40;;;16.70;99.90;;;;;;5116493;28;20024;-61
2022/07/01 01:50:12;;;;;;;0.80;0.40;;;16.70;99.90;;;;;;5116338;28;20098;-61
2022/07/01 01:52:38;;;;;;;3.22;0.47;;;16.80;99.90;;;;;;5116270;28;20076;-60
2022/07/01 01:55:04;;;;;;;1.13;0.60;;;16.80;99.90;;;;;;5115412;28;20019;-61
2022/07/01 01:57:30;;;;;;;0.98;0.40;;;16.80;99.90;;;;;;5116112;28;20063;-60
2022/07/01 01:59:56;;;;;;;0.85;0.50;;;16.80;99.90;;;;;;5115946;28;20061;-60
2022/07/01 02:02:22;;;;;;;1.27;0.40;;;16.90;99.90;;;;;;5116384;28;20028;-60
2022/07/01 02:04:48;;;;;;;0.50;0.40;;;16.90;99.90;;;;;;5114694;28;20020;-60
2022/07/01 02:07:14;;;;;;;2.28;0.60;;;16.90;99.90;;;;;;5125425;22;20310;-66
2022/07/01 02:09:39;;;;;;;0.50;0.35;;;16.70;99.90;;;;;;5096622;28;20034;-66
2022/07/01 02:12:05;;;;;;;0.63;0.50;;;16.80;99.90;;;;;;5095532;28;20468;-65
2022/07/01 02:14:31;;;;;;;1.10;0.45;;;16.80;99.90;;;;;;5077784;28;20065;-66
2022/07/01 02:16:56;;;;;;;0.68;0.40;;;16.70;99.90;;;;;;5095384;28;20032;-65
2022/07/01 02:19:22;;;;;;;2.30;0.47;;;16.70;99.90;;;;;;5096015;28;20024;-66
2022/07/01 02:21:50;;;;;;;2.55;0.43;;;16.70;99.90;;;;;;5096049;28;20254;-66
2022/07/01 02:24:16;;;;;;;0.40;0.30;;;16.80;99.90;;;;;;5095601;28;20028;-67
2022/07/01 02:26:42;;;;;;;0.77;0.45;;;16.80;99.90;;;;;;5095258;28;20027;-65
2022/07/01 02:29:07;;;;;;;0.40;0.30;;;16.90;99.90;;;;;;5095601;28;20499;-66
2022/07/01 02:31:33;;;;;;;0.77;0.43;;;17.00;99.90;;;;;;5095222;28;20745;-66
2022/07/01 02:33:58;;;;;;;0.90;0.40;;;17.00;99.90;;;;;;5095210;28;20028;-65
2022/07/01 02:36:24;;;;;;;1.02;0.47;;;16.90;99.90;;;;;;5095183;28;20052;-65
2022/07/01 02:38:49;;;;;;;1.27;0.40;;;16.90;99.90;;;;;;5095372;28;20337;-65
2022/07/01 02:41:15;;;;;;;3.55;0.68;;;16.80;99.90;;;;;;5076865;28;20668;-66
2022/07/01 02:43:40;;;;;;;1.57;0.53;;;16.90;99.90;;;;;;5095200;28;20108;-65
2022/07/01 02:46:06;;;;;;;0.43;0.43;;;17.00;99.90;;;;;;5095019;28;20290;-66
2022/07/01 02:48:31;;;;;;;0.85;0.50;;;16.90;99.90;;;;;;5094791;28;20031;-66
2022/07/01 02:50:57;;;;;;;1.27;0.60;;;17.10;99.90;;;;;;5076558;28;20081;-66
2022/07/01 02:53:22;;;;;;;0.68;0.55;;;17.00;99.90;;;;;;5094351;28;20028;-66
2022/07/01 02:55:48;;;;;;;1.83;0.60;;;17.00;99.90;;;;;;5094699;28;20111;-66
2022/07/01 02:58:13;;;;;;;1.23;0.50;;;16.90;99.90;;;;;;5094643;28;20373;-66
2022/07/01 03:00:39;;;;;;;2.83;0.80;;;16.90;99.90;;;;;;5094771;28;20255;-66
2022/07/01 03:03:05;;;;;;;0.97;0.60;;;16.90;99.90;;;;;;5094612;28;20255;-66
2022/07/01 03:05:30;;;;;;;1.00;0.68;;;16.70;99.90;;;;;;5094692;28;20146;-66
2022/07/01 03:07:56;;;;;;;1.10;0.80;;;16.70;99.90;;;;;;5094171;28;20415;-65
2022/07/01 03:10:21;;;;;;;0.50;0.50;;;16.80;99.90;;;;;;5094161;28;20111;-65
2022/07/01 03:12:47;;;;;;;0.70;0.60;;;16.80;99.90;;;;;;5094389;28;20036;-66
2022/07/01 03:15:15;;;;;;;1.23;0.60;;;16.80;99.90;;;;;;5076063;28;20270;-66
2022/07/01 03:17:42;;;;;;;1.60;0.75;;;16.80;99.90;;;;;;5093982;28;20608;-66
2022/07/01 03:20:10;;;;;;;0.85;0.65;;;16.80;99.90;;;;;;5094429;28;20038;-66
2022/07/01 03:22:36;;;;;;;2.67;0.77;;;16.70;99.90;;;;;;5094309;28;20460;-66
2022/07/01 03:25:03;;;;;;;1.63;0.77;;;16.70;99.90;;;;;;5094075;28;20035;-67
2022/07/01 03:27:29;;;;;;;2.42;1.00;;;16.70;99.90;;;;;;5093746;28;20476;-66
2022/07/01 03:29:55;;;;;;;0.85;0.65;;;16.70;99.90;;;;;;5093806;28;20084;-66
2022/07/01 03:32:21;;;;;;;1.50;0.70;;;16.70;99.90;;;;;;5093827;28;20024;-66
2022/07/01 03:34:48;;;;;;;1.85;0.77;;;16.80;99.90;;;;;;5076770;28;20358;-66
2022/07/01 03:37:15;;;;;;;2.28;0.80;;;16.70;99.90;;;;;;5093927;28;20071;-66
2022/07/01 03:39:41;;;;;;;1.75;0.68;;;16.70;99.90;;;;;;5094014;28;20035;-66
2022/07/01 03:42:08;;;;;;;0.82;0.70;;;16.80;99.90;;;;;;5075457;28;20032;-65
2022/07/01 03:44:34;;;;;;;;;;;16.90;99.90;;;;;;5093978;28;20020;-65
2022/07/01 03:47:00;;;;;;;1.60;0.73;;;16.90;99.90;;;;;;5093579;28;19904;-65
2022/07/01 03:49:26;;;;;;;0.82;0.70;;;16.80;99.90;;;;;;5093514;28;20024;-65
2022/07/01 03:51:52;;;;;;;1.15;0.90;;;16.80;99.90;;;;;;5075308;28;20119;-66
2022/07/01 03:54:30;;;;;;;2.13;1.25;;;16.80;99.90;;;;;;5093418;28;20544;-66
2022/07/01 03:57:02;;;;;;;0.85;0.77;;;16.70;99.90;;;;;;5093478;28;20502;-65
2022/07/01 03:59:30;;;;;;;2.58;0.77;;;16.70;99.90;;;;;;5093319;28;20433;-65
2022/07/01 04:01:56;;;;;;;1.40;0.55;;;16.70;99.90;;;;;;5093321;28;20021;-66
2022/07/01 04:04:23;;;;;;;1.75;0.80;;;16.70;99.90;;;;;;5093445;28;20030;-65
2022/07/01 04:06:49;;;;;;;3.50;0.68;;;16.70;99.90;;;;;;5092930;28;20059;-66
2022/07/01 04:09:16;;;;;;;3.47;0.98;;;16.70;99.90;;;;;;5093600;28;20024;-66
2022/07/01 04:11:43;;;;;;;1.73;0.77;;;16.70;99.90;;;;;;5093738;28;20028;-66
2022/07/01 04:14:09;;;;;;;4.43;0.90;;;16.60;99.90;;;;;;5075471;28;20452;-67
2022/07/01 04:16:35;;;;;;;1.95;0.80;;;16.60;99.90;;;;;;5094098;28;20051;-68
2022/07/01 04:19:01;;;;;;;3.55;1.08;;;16.60;99.90;;;;;;5096071;28;20025;-67
2022/07/01 04:24:13;;;;;;;2.80;0.70;;;16.70;99.90;;;;;;5093929;28;20063;-66
2022/07/01 04:26:39;;;;;;;0.90;0.68;;;16.80;99.90;;;;;;5074900;28;20418;-67
2022/07/01 04:29:05;;;;;;;1.83;0.55;;;16.70;99.90;;;;;;5093469;28;20020;-67
2022/07/01 04:31:31;;;;;;;;;;;16.80;99.90;;;;;;5075236;28;20028;-66
2022/07/01 04:33:57;;;;;;;2.30;0.82;;;16.80;99.90;;;;;;5092862;28;20398;-67
2022/07/01 04:36:22;;;;;;;1.40;0.60;;;16.80;99.90;;;;;;5092968;28;20039;-66
2022/07/01 04:38:48;;;;;;;0.82;0.75;;;16.80;99.90;;;;;;5092871;28;20416;-67
2022/07/01 04:43:58;;;;;;;2.95;1.00;;;16.70;99.90;;;;;;5093048;28;20035;-64
2022/07/01 04:46:23;;;;;;;3.03;2.60;;;16.60;99.90;;;;;;5074613;28;20024;-64
2022/07/01 04:48:49;;;;;;;2.13;0.77;;;16.60;99.90;;;;;;5074578;28;20380;-64
2022/07/01 04:51:14;;;;;;;0.70;0.50;;;16.50;99.90;;;;;;5092699;28;20031;-64
2022/07/01 04:53:40;;;;;;;2.10;0.60;;;16.50;99.90;;;;;;5092738;28;20477;-64
2022/07/01 04:56:06;;;;;;;2.77;0.70;;;16.50;99.90;;;;;;5074351;28;20270;-65
2022/07/01 04:58:31;;;;;;;1.70;0.83;;;16.40;99.90;;;;;;5074372;28;20031;-66
2022/07/01 05:00:57;;;;;;;3.00;0.70;;;16.40;99.90;;;;;;5092565;28;20258;-67
2022/07/01 05:03:22;;;;;;;2.10;0.73;;;16.60;99.90;;;;;;5093323;28;20438;-66
2022/07/01 05:05:48;;;;;;;0.73;0.60;;;16.60;99.90;;;;;;5092539;28;20342;-65
2022/07/01 05:08:13;;;;;;;4.45;0.90;;;16.60;99.90;;;;;;5092700;28;20422;-66
2022/07/01 05:10:39;;;;;;;1.70;0.90;;;16.50;99.90;;;;;;5092762;28;20059;-66
2022/07/01 05:13:04;;;;;;;1.07;0.87;;;16.40;99.90;;;;;;5092581;28;20273;-67
2022/07/01 05:15:30;;;;;;;3.95;1.20;;;16.40;99.90;;;;;;5092815;28;20035;-66
2022/07/01 05:23:24;;;;;;;2.75;1.00;;;16.40;99.90;;;;;;5096644;28;20030;-67
2022/07/01 05:25:50;;;;;;;2.30;0.87;;;16.40;99.90;;;;;;5096192;28;20024;-66
2022/07/01 05:28:16;;;;;;;1.52;0.80;;;16.40;99.90;;;;;;5096392;28;20408;-66
2022/07/01 05:30:41;;;;;;;2.72;1.10;;;16.40;99.90;;;;;;5096006;28;20097;-66
2022/07/01 05:33:07;;;;;;;1.97;1.40;;;16.40;99.90;;;;;;5096120;28;20034;-66
2022/07/01 05:35:32;;;;;;;3.30;1.17;;;16.30;99.90;;;;;;5077848;28;20258;-66
2022/07/01 05:37:58;;;;;;;5.53;1.25;;;16.40;99.90;;;;;;5077702;28;20165;-67
2022/07/01 05:40:25;;;;;;;2.42;1.10;;;16.30;99.90;;;;;;5095999;28;20028;-67
2022/07/01 05:42:51;;;;;;;3.03;1.10;;;16.40;99.90;;;;;;5095839;28;20098;-67
2022/07/01 05:45:17;;;;;;;1.92;1.27;;;16.30;99.90;;;;;;5077354;28;20108;-66
2022/07/01 05:47:43;;;;;;;3.42;1.23;;;16.30;99.90;;;;;;5095812;28;20048;-65
2022/07/01 05:50:09;;;;;;;3.08;1.30;;;16.30;99.90;;;;;;5095602;28;20028;-68
2022/07/01 05:52:34;;;;;;;3.00;1.00;;;16.30;99.90;;;;;;5096048;28;20028;-68
2022/07/01 05:55:00;;;;;;;2.22;1.00;;;16.30;99.90;;;;;;5095765;28;20094;-68
2022/07/01 05:57:26;;;;;;;1.52;1.10;;;16.40;99.90;;;;;;5095516;28;20028;-67
2022/07/01 05:59:52;;;;;;;3.88;1.45;;;16.40;99.90;;;;;;5077374;28;20081;-67
2022/07/01 06:02:17;;;;;;;2.13;1.40;;;16.40;99.90;;;;;;5077080;28;20499;-65
2022/07/01 06:04:43;;;;;;;1.70;1.25;;;16.30;99.90;;;;;;5096433;28;20016;-69
2022/07/01 06:07:10;;;;;;;4.67;1.60;;;16.40;99.90;;;;;;5100289;28;20503;-68
2022/07/01 06:09:36;;;;;;;2.78;1.20;;;16.40;99.90;;;;;;5095405;28;20269;-67
2022/07/01 06:12:02;;;;;;;3.38;1.50;;;16.40;99.90;;;;;;5095356;28;20024;-68
2022/07/01 06:14:27;;;;;;;3.22;1.30;;;16.50;99.90;;;;;;5095192;28;20077;-68
2022/07/01 06:16:53;;;;;;;3.47;1.47;;;16.50;99.90;;;;;;5095019;28;20028;-68
2022/07/01 06:19:19;;;;;;;2.47;1.70;;;16.50;99.90;;;;;;5094867;28;20274;-68
2022/07/01 06:21:45;;;;;;;4.13;1.67;;;16.50;99.90;;;;;;5077181;28;20630;-69
2022/07/01 06:24:11;;;;;;;2.97;1.67;;;16.50;99.90;;;;;;5095515;28;20031;-67
2022/07/01 06:26:36;;;;;;;4.53;1.80;;;16.50;99.90;;;;;;5077458;28;20054;-68
2022/07/01 06:29:02;;;;;;;3.30;1.70;;;16.60;99.90;;;;;;5075993;28;20020;-68
2022/07/01 06:31:27;;;;;;;4.77;1.93;;;16.60;99.90;;;;;;5095055;28;20258;-68
2022/07/01 06:33:53;;;;;;;3.83;2.40;;;16.60;99.90;;;;;;5076760;28;20274;-68
2022/07/01 06:36:19;;;;;;;6.13;2.50;;;16.60;99.90;;;;;;5094825;28;20035;-67
2022/07/01 06:38:44;;;;;;;3.03;2.25;;;16.60;99.90;;;;;;5094737;28;20024;-67
2022/07/01 06:41:28;;;;;;;3.28;2.00;;;16.70;99.90;;;;;;5076668;28;20086;-67
2022/07/01 06:44:01;;;;;;;3.38;2.17;;;16.70;99.90;;;;;;5095212;28;20092;-67
2022/07/01 06:46:29;;;;;;;4.00;2.10;;;16.70;99.90;;;;;;5076579;28;20116;-67
2022/07/01 06:48:55;;;;;;;5.78;1.90;;;16.70;99.90;;;;;;5077593;28;20103;-68
2022/07/01 06:51:21;;;;;;;5.53;2.88;;;16.70;99.90;;;;;;5095281;28;20020;-67
2022/07/01 06:53:49;;;;;;;3.95;2.45;;;16.80;99.90;;;;;;5076224;28;20028;-67
2022/07/01 06:56:16;;;;;;;3.97;1.88;;;16.80;99.90;;;;;;5094593;28;20073;-67
2022/07/01 06:58:41;;;;;;;;;;;16.80;99.90;;;;;;5076331;28;20484;-68
2022/07/01 07:01:07;;;;;;;5.15;2.35;;;16.70;99.90;;;;;;5094101;28;19911;-67
2022/07/01 07:03:33;;;;;;;3.60;2.17;;;16.70;99.90;;;;;;5094203;28;20024;-67
2022/07/01 07:06:02;;;;;;;2.53;1.80;;;16.60;99.90;;;;;;5076223;28;20265;-66
2022/07/01 07:08:29;;;;;;;4.10;2.15;;;16.50;99.90;;;;;;5095500;28;20369;-67
2022/07/01 07:10:54;;;;;;;3.97;2.22;;;16.40;99.90;;;;;;5095273;28;20059;-67
2022/07/01 07:13:20;;;;;;;2.17;1.63;;;16.40;99.90;;;;;;5095289;28;20089;-68
2022/07/01 07:15:45;;;;;;;2.70;1.80;;;16.40;99.90;;;;;;5095281;28;20055;-67
2022/07/01 07:18:11;;;;;;;3.63;2.53;;;16.40;99.90;;;;;;5078146;28;20811;-68
2022/07/01 07:20:37;;;;;;;3.80;2.00;;;16.30;99.90;;;;;;5077860;28;20032;-68
2022/07/01 07:23:03;;;;;;;5.88;2.38;;;16.30;99.90;;;;;;5097497;28;20286;-68
2022/07/01 07:25:28;;;;;;;2.63;2.20;;;16.40;99.90;;;;;;5099532;28;20385;-67
2022/07/01 07:27:54;;;;;;;3.80;2.17;;;16.40;99.90;;;;;;5077452;28;20336;-67
2022/07/01 07:30:20;;;;;;;4.72;1.92;;;16.40;99.90;;;;;;5094497;28;20032;-67
2022/07/01 07:32:47;;;;;;;3.05;2.13;;;16.40;99.90;;;;;;5093929;28;20064;-67
2022/07/01 07:35:13;;;;;;;5.30;1.98;;;16.50;99.90;;;;;;5075271;28;20491;-66
2022/07/01 07:37:39;;;;;;;3.95;2.10;;;16.60;99.90;;;;;;5075311;28;20495;-66
2022/07/01 07:40:09;;;;;;;2.38;1.75;;;16.70;99.90;;;;;;5075309;28;20028;-66
2022/07/01 07:42:36;;;;;;;2.42;1.48;;;16.70;99.90;;;;;;5093362;28;20024;-66
2022/07/01 07:45:02;;;;;;;;;;;16.70;99.90;;;;;;5093997;28;20107;-66
2022/07/01 07:47:27;;;;;;;5.68;1.85;;;16.70;99.90;;;;;;5093524;28;19931;-66
2022/07/01 07:49:53;;;;;;;3.27;1.67;;;16.60;99.90;;;;;;5094639;28;20055;-66
2022/07/01 07:52:18;;;;;;;5.57;2.40;;;16.40;99.90;;;;;;5093591;28;20032;-66
2022/07/01 07:54:44;;;;;;;4.82;1.67;;;16.40;99.90;;;;;;5093506;28;20024;-66
2022/07/01 07:57:09;;;;;;;4.40;1.97;;;16.30;99.90;;;;;;5075215;28;20484;-66
2022/07/01 07:59:35;;;;;;;3.38;1.60;;;16.30;99.90;;;;;;5075228;28;20078;-66
2022/07/01 08:02:01;;;;;;;4.85;2.20;;;16.20;99.90;;;;;;5093252;28;20024;-66
2022/07/01 08:04:27;;;;;;;4.03;1.55;;;16.10;99.90;;;;;;5093272;28;20361;-66
2022/07/01 08:06:53;;;;;;;2.47;1.70;;;16.00;99.90;;;;;;5093918;28;20043;-65
2022/07/01 08:09:19;;;;;;;;;;;16.00;99.90;;;;;;5094382;28;20056;-65
2022/07/01 08:11:45;;;;;;;3.70;1.70;;;15.90;99.90;;;;;;5094190;28;20379;-65
2022/07/01 08:14:10;;;;;;;2.88;1.63;;;15.90;99.90;;;;;;5094180;28;20027;-65
2022/07/01 08:16:36;;;;;;;4.18;2.00;;;15.80;99.90;;;;;;5094407;28;20494;-65
2022/07/01 08:19:02;;;;;;;2.80;1.53;;;15.90;99.90;;;;;;5076269;28;20101;-65
2022/07/01 08:21:28;;;;;;;3.50;1.70;;;15.90;99.90;;;;;;5094400;28;20734;-65
2022/07/01 08:23:54;;;;;;;5.53;1.77;;;15.90;99.90;;;;;;5094279;28;20103;-66
2022/07/01 08:26:20;;;;;;;4.80;1.63;;;15.90;99.90;;;;;;5093942;28;20051;-65
2022/07/01 08:28:45;;;;;;;4.15;2.00;;;16.00;99.90;;;;;;5094146;28;20081;-65
2022/07/01 08:31:11;;;;;;;3.90;2.10;;;16.00;99.90;;;;;;5076017;28;20027;-65
2022/07/01 08:33:37;;;;;;;2.95;1.85;;;16.10;99.90;;;;;;5094139;28;20549;-65
2022/07/01 08:36:04;;;;;;;2.33;1.85;;;16.10;99.90;;;;;;5094178;28;20043;-66
2022/07/01 08:38:30;;;;;;;4.07;1.70;;;16.30;99.90;;;;;;5094754;28;20031;-66
2022/07/01 08:40:55;;;;;;;2.92;1.40;;;16.40;99.90;;;;;;5076182;28;20107;-66
2022/07/01 08:43:21;;;;;;;3.17;2.40;;;16.50;99.90;;;;;;5094295;28;20473;-66
2022/07/01 08:45:50;;;;;;;3.67;1.70;;;16.70;99.90;;;;;;5094761;28;20028;-67
2022/07/01 08:48:16;;;;;;;3.08;1.75;;;17.00;99.90;;;;;;5094375;28;20081;-66
2022/07/01 08:50:41;;;;;;;3.40;1.60;;;17.20;99.90;;;;;;5094327;28;20492;-66
2022/07/01 08:53:08;;;;;;;2.58;1.60;;;17.40;99.90;;;;;;5079237;28;20051;-65
2022/07/01 08:58:20;;;;;;;2.47;1.27;;;17.80;99.90;;;;;;5098847;28;20039;-65
2022/07/01 09:00:45;;;;;;;3.67;1.40;;;18.00;99.90;;;;;;5098420;28;20100;-66
2022/07/01 09:03:11;;;;;;;1.73;1.10;;;18.20;99.90;;;;;;5098076;28;20024;-66
2022/07/01 09:05:36;;;;;;;2.22;1.10;;;18.20;99.90;;;;;;5098208;28;20024;-65
2022/07/01 09:08:05;;;;;;;1.27;1.05;;;18.40;99.90;;;;;;5098292;28;20036;-66
2022/07/01 09:10:34;;;;;;;2.45;1.27;;;18.50;99.90;;;;;;5079337;28;20032;-65
2022/07/01 09:13:07;;;;;;;2.35;1.80;;;18.50;99.90;;;;;;5098001;28;20020;-66
2022/07/01 09:15:34;;;;;;;3.85;1.55;;;18.60;99.90;;;;;;5097721;28;20020;-66
2022/07/01 09:18:05;;;;;;;2.95;0.93;;;18.70;99.90;;;;;;5098791;28;20115;-66
2022/07/01 09:20:33;;;;;;;2.85;1.63;;;19.00;99.90;;;;;;5098201;28;20106;-66
2022/07/01 09:23:00;;;;;;;2.90;1.17;;;19.00;99.90;;;;;;5098156;28;20084;-66
2022/07/01 09:25:37;;;;;;;2.15;1.20;;;19.30;99.90;;;;;;5079435;28;20020;-66
2022/07/01 09:28:22;;;;;;;5.53;1.10;;;19.90;99.90;;;;;;5097135;28;20017;-66
2022/07/01 09:30:51;;;;;;;1.50;0.90;;;21.00;99.90;;;;;;5079873;28;20020;-66
2022/07/01 09:33:19;;;;;;;2.42;0.90;;;22.00;99.90;;;;;;5097193;28;20028;-66
2022/07/01 09:35:49;;;;;;;2.58;0.90;;;22.30;99.90;;;;;;5079007;28;20451;-67
2022/07/01 09:38:17;;;;;;;1.95;0.95;;;21.90;99.90;;;;;;5078916;28;20114;-66
2022/07/01 09:41:03;;;;;;;1.98;1.20;;;21.60;99.90;;;;;;5097633;28;20161;-66
2022/07/01 09:43:32;;;;;;;2.93;1.20;;;20.90;99.90;;;;;;5097839;28;20027;-67
2022/07/01 09:46:10;;;;;;;2.58;0.93;;;20.50;99.90;;;;;;5097388;28;20324;-67
2022/07/01 09:48:35;;;;;;;1.75;1.00;;;20.10;99.90;;;;;;5097468;28;20425;-66
2022/07/01 09:51:03;;;;;;;2.92;0.90;;;19.90;99.90;;;;;;5079317;28;20034;-66
2022/07/01 09:53:29;;;;;;;3.78;0.93;;;19.90;99.90;;;;;;5098137;28;20036;-66
2022/07/01 09:55:54;;;;;;;2.53;1.00;;;19.90;99.90;;;;;;5080945;28;20024;-66
2022/07/01 09:58:20;;;;;;;1.42;1.05;;;20.10;99.90;;;;;;5081011;28;20036;-66
2022/07/01 10:00:46;;;;;;;4.50;1.00;;;20.40;99.90;;;;;;5097809;28;20019;-66
2022/07/01 10:03:12;;;;;;;;;;;20.70;99.90;;;;;;5096752;28;20103;-66
2022/07/01 10:05:53;;;;;;;4.65;0.90;;;20.90;99.90;;;;;;5096896;28;19951;-66
2022/07/01 10:08:42;;;;;;;1.52;0.65;;;20.90;99.90;;;;;;5097148;28;20517;-66
2022/07/01 10:11:45;;;;;;;0.90;0.70;;;21.00;99.90;;;;;;5097193;28;20472;-66
2022/07/01 10:14:13;;;;;;;1.90;1.17;;;20.70;99.90;;;;;;5078835;28;20016;-67
2022/07/01 10:16:38;;;;;;;3.28;0.90;;;20.50;99.90;;;;;;5096865;28;20032;-66
2022/07/01 10:19:24;;;;;;;2.70;0.68;;;20.70;99.90;;;;;;5096659;28;20553;-67
2022/07/01 10:21:51;;;;;;;0.95;0.80;;;21.20;99.90;;;;;;5096477;28;20020;-66
2022/07/01 10:24:18;;;;;;;2.45;1.08;;;21.50;99.90;;;;;;5096528;28;20142;-66
2022/07/01 10:26:45;;;;;;;1.55;0.93;;;21.80;99.90;;;;;;5096651;28;20020;-66
2022/07/01 10:29:31;;;;;;;1.83;0.90;;;22.70;99.90;;;;;;5096509;28;20032;-66
2022/07/01 10:32:24;;;;;;;1.10;0.65;;;25.10;97.60;;;;;;5077879;28;20044;-67
2022/07/01 10:35:02;;;;;;;2.08;0.63;;;27.10;93.50;;;;;;5096026;28;20028;-66
2022/07/01 10:37:27;;;;;;;5.45;2.33;;;27.60;91.40;;;;;;5096102;28;20097;-66
2022/07/01 10:40:00;;;;;;;2.95;0.70;;;27.30;91.70;;;;;;5095583;28;20445;-66
2022/07/01 10:42:58;;;;;;;2.17;0.90;;;25.90;92.10;;;;;;5077766;28;20456;-66
2022/07/01 10:45:24;;;;;;;1.45;0.70;;;24.20;94.60;;;;;;5096454;28;20052;-66
2022/07/01 10:48:10;;;;;;;;;;;23.10;95.50;;;;;;5096418;28;20039;-66
2022/07/01 10:50:38;;;;;;;2.58;0.73;;;22.40;97.40;;;;;;5078372;28;19904;-67
2022/07/01 10:53:04;;;;;;;3.05;1.00;;;22.10;98.00;;;;;;5096177;28;20027;-66
2022/07/01 10:55:37;;;;;;;;;;;22.00;99.00;;;;;;5097112;28;20025;-66
2022/07/01 10:58:02;;;;;;;2.42;1.30;;;22.00;97.60;;;;;;5096352;28;19904;-67
2022/07/01 11:00:31;;;;;;;;;;;22.40;96.50;;;;;;5096144;28;20028;-67
2022/07/01 11:03:05;;;;;;;3.85;1.30;;;23.00;97.10;;;;;;5096204;28;19983;-67
2022/07/01 11:05:31;;;;;;;1.67;0.82;;;24.20;95.20;;;;;;5096479;28;20040;-67
2022/07/01 11:07:56;;;;;;;;;;;25.30;94.00;;;;;;5080067;28;20028;-68
2022/07/01 11:10:22;;;;;;;1.52;0.65;;;26.60;92.10;;;;;;5097344;28;19927;-66
2022/07/01 11:12:49;;;;;;;1.83;0.80;;;27.60;87.50;;;;;;5077948;28;20024;-65
2022/07/01 11:15:15;;;;;;;1.35;0.80;;;27.00;88.00;;;;;;5076651;28;20024;-67
2022/07/01 11:17:45;;;;;;;3.10;0.88;;;26.40;88.60;;;;;;5095015;28;20480;-66
2022/07/01 11:20:12;;;;;;;1.17;0.65;;;25.50;89.50;;;;;;5095310;28;20028;-66
2022/07/01 11:22:37;;;;;;;2.28;0.80;;;24.60;90.50;;;;;;5078232;28;20387;-65
2022/07/01 11:25:06;;;;;;;3.72;0.80;;;24.20;91.60;;;;;;5095329;28;20113;-65
2022/07/01 11:27:32;;;;;;;2.00;0.70;;;24.00;91.80;;;;;;5094564;28;20030;-66
2022/07/01 11:30:04;;;;;;;1.90;0.52;;;23.70;92.30;;;;;;5096034;28;20487;-66
2022/07/01 11:32:32;;;;;;;0.77;0.70;;;23.60;92.00;;;;;;5095477;28;20031;-66
2022/07/01 11:34:59;;;;;;;1.88;0.60;;;23.20;92.10;;;;;;5094917;28;20186;-66
2022/07/01 11:40:18;;;;;;;1.40;0.60;;;23.20;91.70;;;;;;5094274;28;20047;-68
2022/07/01 11:42:45;;;;;;;2.92;1.67;;;23.30;92.00;;;;;;5093610;28;20019;-67
2022/07/01 11:45:23;;;;;;;1.88;0.70;;;23.30;91.60;;;;;;5093393;28;20035;-67
2022/07/01 11:47:49;;;;;;;1.55;0.80;;;23.30;91.80;;;;;;5076514;28;20020;-67
2022/07/01 11:50:15;;;;;;;;;;;23.30;92.90;;;;;;5078466;28;20081;-67
2022/07/01 11:52:41;;;;;;;1.92;0.90;;;22.80;92.10;;;;;;5095288;28;19904;-68
2022/07/01 11:55:07;;;;;;;;;;;22.80;93.10;;;;;;5094699;28;20059;-67
2022/07/01 11:57:34;;;;;;;1.27;0.65;;;22.90;92.90;;;;;;5094361;28;19904;-66
2022/07/01 12:00:08;;;;;;;1.55;0.77;;;22.70;92.60;;;;;;5094514;28;20024;-66
2022/07/01 12:02:34;;;;;;;2.13;0.70;;;22.70;93.30;;;;;;5095226;28;20020;-66
2022/07/01 12:05:00;;;;;;;2.63;0.75;;;22.60;93.20;;;;;;5094781;28;20389;-66
2022/07/01 12:07:26;;;;;;;0.80;0.70;;;22.30;94.00;;;;;;5094404;28;20032;-66
2022/07/01 12:09:52;;;;;;;1.77;1.10;;;21.90;94.80;;;;;;5094990;28;20107;-68
2022/07/01 12:12:19;;;;;;;1.63;0.70;;;22.20;95.10;;;;;;5076267;28;20052;-65
2022/07/01 12:14:58;;;;;;;2.83;1.00;;;22.30;94.40;;;;;;5093890;28;20024;-66
2022/07/01 12:17:25;;;;;;;4.03;1.00;;;22.60;94.60;;;;;;5095755;28;20453;-66
2022/07/01 12:19:53;;;;;;;1.13;0.80;;;22.70;94.00;;;;;;5079284;28;20157;-67
2022/07/01 12:22:26;;;;;;;1.75;0.60;;;22.70;94.00;;;;;;5098344;28;20081;-67
2022/07/01 12:25:03;;;;;;;1.40;0.75;;;22.60;93.60;;;;;;5079386;28;20111;-66
2022/07/01 12:27:29;;;;;;;2.42;0.60;;;22.40;95.00;;;;;;5096427;28;20020;-68
2022/07/01 12:29:55;;;;;;;1.60;0.73;;;22.40;94.90;;;;;;5082569;28;20024;-68
2022/07/01 12:32:23;;;;;;;1.58;0.75;;;22.60;94.60;;;;;;5082293;28;20192;-68
2022/07/01 12:34:55;;;;;;;3.08;1.00;;;22.40;94.50;;;;;;5081919;28;20423;-68
2022/07/01 12:37:33;;;;;;;2.30;0.90;;;22.40;95.50;;;;;;5080802;28;20039;-64
2022/07/01 12:40:02;;;;;;;2.38;1.20;;;22.30;94.90;;;;;;5095911;28;20032;-65
2022/07/01 12:42:33;;;;;;;1.67;0.93;;;22.50;95.10;;;;;;5094767;28;20473;-65
2022/07/01 12:45:03;;;;;;;3.38;1.25;;;22.60;94.60;;;;;;5076118;28;20091;-66
2022/07/01 12:47:36;;;;;;;3.45;1.00;;;22.90;94.50;;;;;;5094304;28;20028;-66
2022/07/01 12:50:21;;;;;;;2.08;1.02;;;22.50;94.50;;;;;;5094819;28;20485;-66
2022/07/01 12:53:04;;;;;;;1.45;0.88;;;22.20;94.40;;;;;;5076629;28;20119;-64
2022/07/01 12:55:37;;;;;;;2.45;1.00;;;21.70;95.10;;;;;;5076270;28;20047;-66
2022/07/01 12:58:06;;;;;;;2.30;0.82;;;21.80;95.50;;;;;;5094238;28;20103;-65
2022/07/01 13:00:32;;;;;;;2.63;0.90;;;21.90;95.60;;;;;;5076783;28;20026;-66
2022/07/01 13:03:00;;;;;;;1.45;1.00;;;21.80;95.10;;;;;;5094098;28;20100;-66
2022/07/01 13:05:26;;;;;;;3.13;0.80;;;21.60;95.10;;;;;;5093825;28;20020;-65
2022/07/01 13:07:51;;;;;;;2.35;0.75;;;21.80;95.40;;;;;;5094864;28;20059;-66